Time;durP1;ratioP1;P1;durP2;ratioP2;P2;SDS_P1;SDS_P2;PMS_P1;PMS_P2;Temp;Humidity;BMP_temperature;BMP_pressure;BME280_temperature;BME280_humidity;BME280_pressure;Samples;Min_cycle;Max_cycle;Signal;HPM_P1;HPM_P2
2022/01/23 00:01:44;;;;;;;28.42;13.80;;;1.50;99.90;;;;;;5089699;28;20044;-74
2022/01/23 00:04:16;;;;;;;35.13;16.42;;;1.50;99.90;;;;;;5089297;28;20525;-73
2022/01/23 00:06:45;;;;;;;29.92;14.55;;;1.50;99.90;;;;;;5089520;28;20051;-73
2022/01/23 00:09:14;;;;;;;30.52;13.55;;;1.50;99.90;;;;;;5089747;28;20054;-73
2022/01/23 00:11:51;;;;;;;30.20;15.32;;;1.60;99.90;;;;;;5090967;28;20044;-72
2022/01/23 00:17:17;;;;;;;23.60;12.90;;;1.50;99.90;;;;;;5090785;28;20048;-73
2022/01/23 00:19:46;;;;;;;30.17;15.02;;;1.50;99.90;;;;;;5089438;28;20131;-72
2022/01/23 00:22:13;;;;;;;30.33;14.50;;;1.50;99.90;;;;;;5090704;28;20509;-73
2022/01/23 00:30:26;;;;;;;28.70;14.32;;;1.60;99.90;;;;;;5090155;28;20051;-74
2022/01/23 00:33:01;;;;;;;25.75;15.25;;;1.60;99.90;;;;;;5089013;28;20039;-73
2022/01/23 00:35:35;;;;;;;26.17;14.32;;;1.60;99.90;;;;;;5089536;28;20039;-73
2022/01/23 00:38:08;;;;;;;31.35;14.60;;;1.60;99.90;;;;;;5089566;28;20128;-73
2022/01/23 00:40:42;;;;;;;29.85;14.15;;;1.50;99.90;;;;;;5089709;28;20062;-73
2022/01/23 00:43:17;;;;;;;28.63;14.45;;;1.50;99.90;;;;;;5090219;28;20506;-74
2022/01/23 00:45:48;;;;;;;30.30;15.23;;;1.50;99.90;;;;;;5091517;28;20044;-74
2022/01/23 00:48:25;;;;;;;26.55;14.68;;;1.50;99.90;;;;;;5094659;28;20130;-73
2022/01/23 00:50:57;;;;;;;27.00;15.25;;;1.50;99.90;;;;;;5094580;28;20060;-73
2022/01/23 00:53:24;;;;;;;27.45;14.43;;;1.50;99.90;;;;;;5075981;28;20455;-73
2022/01/23 00:55:56;;;;;;;23.83;13.48;;;1.40;99.90;;;;;;5077211;28;20139;-74
2022/01/23 00:58:28;;;;;;;24.20;13.70;;;1.50;99.90;;;;;;5093404;28;20054;-73
2022/01/23 01:01:00;;;;;;;26.48;14.63;;;1.50;99.90;;;;;;5093304;28;20064;-73
2022/01/23 01:03:32;;;;;;;27.33;13.52;;;1.50;99.90;;;;;;5093869;28;20043;-73
2022/01/23 01:06:00;;;;;;;24.77;13.90;;;1.40;99.90;;;;;;5076208;28;20045;-73
2022/01/23 01:08:27;;;;;;;22.83;12.70;;;1.40;99.90;;;;;;5092815;28;20105;-73
2022/01/23 01:31:08;;;;;;;26.13;15.07;;;1.40;99.90;;;;;;5092461;28;20062;-73
2022/01/23 01:33:49;;;;;;;28.80;13.45;;;1.40;99.90;;;;;;5092040;28;20047;-73
2022/01/23 01:39:06;;;;;;;23.05;12.68;;;1.30;99.90;;;;;;5092325;28;20046;-73
2022/01/23 01:41:41;;;;;;;23.13;12.82;;;1.30;99.90;;;;;;5092296;28;20063;-74
2022/01/23 01:44:15;;;;;;;24.63;13.40;;;1.30;99.90;;;;;;5075704;28;20122;-73
2022/01/23 01:47:07;;;;;;;20.10;11.63;;;1.30;99.90;;;;;;5092414;28;20552;-74
2022/01/23 01:49:39;;;;;;;24.00;12.38;;;1.30;99.90;;;;;;5092623;28;20118;-73
2022/01/23 01:52:11;;;;;;;24.55;12.27;;;1.30;99.90;;;;;;5092656;28;20048;-73
2022/01/23 01:54:43;;;;;;;20.42;11.90;;;1.30;99.90;;;;;;5092129;28;20068;-73
2022/01/23 01:57:15;;;;;;;20.65;10.65;;;1.30;99.90;;;;;;5092146;28;20047;-74
2022/01/23 02:00:39;;;;;;;18.13;10.73;;;1.30;99.90;;;;;;5083304;28;20079;-73
2022/01/23 02:08:18;;;;;;;17.55;9.65;;;1.30;99.90;;;;;;5088695;28;20039;-72
2022/01/23 02:09:29;;;;;;;19.30;10.90;;;1.30;99.90;;;;;;5094678;28;20043;-73
2022/01/23 02:57:05;;;;;;;16.90;9.27;;;1.50;99.90;;;;;;5095142;28;20040;-74
2022/01/23 02:59:36;;;;;;;17.83;9.85;;;1.50;99.90;;;;;;5095013;28;20484;-72
2022/01/23 03:02:35;;;;;;;18.95;10.18;;;1.50;99.90;;;;;;5112951;28;20418;-73
2022/01/23 03:05:36;;;;;;;16.85;9.32;;;1.50;99.90;;;;;;5094813;28;20050;-73
2022/01/23 03:08:30;;;;;;;16.00;9.35;;;1.50;99.90;;;;;;5094068;28;20130;-73
2022/01/23 03:11:07;;;;;;;16.73;8.98;;;1.50;99.90;;;;;;5094862;28;20502;-73
2022/01/23 03:13:56;;;;;;;17.17;9.75;;;1.50;99.90;;;;;;5094401;28;20135;-73
2022/01/23 03:30:34;;;;;;;15.77;9.60;;;1.50;99.90;;;;;;5079009;28;20138;-74
2022/01/23 03:33:06;;;;;;;19.02;9.50;;;1.50;99.90;;;;;;5094170;28;20134;-73
2022/01/23 03:35:45;;;;;;;16.50;10.57;;;1.60;99.90;;;;;;5094494;28;20075;-73
2022/01/23 03:38:17;;;;;;;17.55;9.68;;;1.60;99.90;;;;;;5112477;28;20065;-73
2022/01/23 03:40:49;;;;;;;20.08;10.75;;;1.50;99.90;;;;;;5094341;28;20464;-73
2022/01/23 03:43:30;;;;;;;16.75;9.48;;;1.60;99.90;;;;;;5094008;28;20054;-73
2022/01/23 03:51:22;;;;;;;13.68;8.80;;;1.50;99.90;;;;;;5094062;28;20051;-74
2022/01/23 03:53:53;;;;;;;14.88;9.13;;;1.40;99.90;;;;;;5093773;28;20066;-73
2022/01/23 03:56:23;;;;;;;17.33;8.82;;;1.40;99.90;;;;;;5094114;28;20057;-73
2022/01/23 03:58:56;;;;;;;18.35;9.75;;;1.40;99.90;;;;;;5095158;28;20043;-73
2022/01/23 04:01:26;;;;;;;17.50;9.82;;;1.30;99.90;;;;;;5077184;28;20472;-73
2022/01/23 04:04:02;;;;;;;17.08;9.20;;;1.30;99.90;;;;;;5093621;28;20064;-73
2022/01/23 04:06:34;;;;;;;18.73;10.15;;;1.40;99.90;;;;;;5093751;28;20040;-73
2022/01/23 04:09:05;;;;;;;17.27;10.10;;;1.40;99.90;;;;;;5077739;28;20486;-73
2022/01/23 04:11:32;;;;;;;17.90;10.05;;;1.40;99.90;;;;;;5093875;28;20108;-73
2022/01/23 04:14:08;;;;;;;18.48;9.93;;;1.40;99.90;;;;;;5093354;28;20043;-73
2022/01/23 04:17:41;;;;;;;16.83;9.85;;;1.40;99.90;;;;;;5077800;28;20128;-74
2022/01/23 04:19:59;;;;;;;;;;;1.50;99.90;;;;;;5092232;28;20043;-73
2022/01/23 04:33:53;;;;;;;17.15;8.77;;;1.40;99.90;;;;;;5093274;28;20039;-73
2022/01/23 04:45:17;;;;;;;11.67;8.47;;;1.40;99.90;;;;;;5077567;28;20044;-73
2022/01/23 04:45:32;;;;;;;19.45;10.32;;;1.30;99.90;;;;;;5093797;28;20044;-73
2022/01/23 05:04:46;;;;;;;19.90;11.15;;;1.30;99.90;;;;;;5079136;28;20439;-73
2022/01/23 05:07:34;;;;;;;20.85;11.35;;;1.30;99.90;;;;;;5096873;28;20047;-73
2022/01/23 05:10:16;;;;;;;19.35;10.73;;;1.30;99.90;;;;;;5111729;28;20075;-73
2022/01/23 05:13:01;;;;;;;17.23;9.73;;;1.30;99.90;;;;;;5078459;28;20384;-73
2022/01/23 05:15:28;;;;;;;21.90;11.07;;;1.30;99.90;;;;;;5076586;28;20039;-73
2022/01/23 05:18:01;;;;;;;17.13;10.20;;;1.30;99.90;;;;;;5111460;28;20048;-74
2022/01/23 05:20:29;;;;;;;18.05;10.75;;;1.30;99.90;;;;;;5093171;28;20525;-73
2022/01/23 05:23:05;;;;;;;18.13;10.68;;;1.30;99.90;;;;;;5085307;28;20090;-73
2022/01/23 05:25:35;;;;;;;19.05;10.43;;;1.20;99.90;;;;;;5104573;28;20070;-73
2022/01/23 05:28:07;;;;;;;21.60;11.15;;;1.20;99.90;;;;;;5093635;28;20348;-73
2022/01/23 05:30:36;;;;;;;16.90;9.60;;;1.20;99.90;;;;;;5093089;28;20174;-73
2022/01/23 05:33:09;;;;;;;17.25;10.65;;;1.20;99.90;;;;;;5114876;28;20040;-73
2022/01/23 05:35:36;;;;;;;16.90;9.88;;;1.20;99.90;;;;;;5096768;28;20074;-73
2022/01/23 05:38:07;;;;;;;18.98;10.82;;;1.20;99.90;;;;;;5080584;28;20035;-73
2022/01/23 05:40:34;;;;;;;18.35;9.73;;;1.30;99.90;;;;;;5096793;28;20057;-73
2022/01/23 05:43:08;;;;;;;18.45;10.35;;;1.30;99.90;;;;;;5096280;28;20046;-73
2022/01/23 05:45:41;;;;;;;19.60;10.32;;;1.30;99.90;;;;;;5096879;28;20075;-73
2022/01/23 05:48:32;;;;;;;17.58;10.15;;;1.30;99.90;;;;;;5114933;28;20051;-73
2022/01/23 05:51:05;;;;;;;17.95;10.23;;;1.30;99.90;;;;;;5114858;28;20506;-73
2022/01/23 05:53:50;;;;;;;19.73;10.23;;;1.30;99.90;;;;;;5099308;28;20104;-74
2022/01/23 05:56:33;;;;;;;19.35;11.23;;;1.30;99.90;;;;;;5082017;28;20071;-73
2022/01/23 05:59:02;;;;;;;15.85;9.77;;;1.30;99.90;;;;;;5114469;28;20410;-73
2022/01/23 06:01:39;;;;;;;17.35;10.10;;;1.30;99.90;;;;;;5096308;28;20040;-73
2022/01/23 06:04:11;;;;;;;19.45;10.73;;;1.20;99.90;;;;;;5095690;28;20506;-73
2022/01/23 06:06:55;;;;;;;17.75;9.15;;;1.20;99.90;;;;;;5081335;28;20060;-73
2022/01/23 06:09:28;;;;;;;17.52;10.45;;;1.20;99.90;;;;;;5096142;28;20490;-73
2022/01/23 06:12:01;;;;;;;19.88;11.70;;;1.20;99.90;;;;;;5080128;28;20071;-72
2022/01/23 06:14:28;;;;;;;18.75;9.95;;;1.10;99.90;;;;;;5095544;28;20139;-74
2022/01/23 06:16:55;;;;;;;20.35;10.57;;;1.10;99.90;;;;;;5079260;28;20076;-74
2022/01/23 06:19:46;;;;;;;16.88;10.35;;;1.10;99.90;;;;;;5114435;28;20188;-73
2022/01/23 06:22:31;;;;;;;18.13;10.75;;;1.10;99.90;;;;;;5114130;28;20184;-73
2022/01/23 06:25:44;;;;;;;16.00;10.13;;;1.10;99.90;;;;;;5074051;28;20040;-73
2022/01/23 06:29:01;;;;;;;19.00;10.63;;;1.10;99.90;;;;;;5114007;28;20031;-73
2022/01/23 06:31:33;;;;;;;19.00;9.98;;;1.10;99.90;;;;;;5095451;28;20458;-73
2022/01/23 06:34:06;;;;;;;16.17;10.43;;;1.10;99.90;;;;;;5095136;28;20050;-73
2022/01/23 06:36:39;;;;;;;19.35;10.85;;;1.10;99.90;;;;;;5079612;28;20039;-74
2022/01/23 06:39:12;;;;;;;20.87;10.10;;;1.10;99.90;;;;;;5079473;28;20516;-73
2022/01/23 06:41:44;;;;;;;17.23;10.73;;;1.20;99.90;;;;;;5095597;28;20143;-73
2022/01/23 06:44:30;;;;;;;17.08;10.85;;;1.20;99.90;;;;;;5098656;28;20618;-73
2022/01/23 06:47:04;;;;;;;20.45;10.65;;;1.10;99.90;;;;;;5095210;28;20054;-72
2022/01/23 06:49:31;;;;;;;18.33;9.82;;;1.20;99.90;;;;;;5095338;28;20040;-74
2022/01/23 06:51:58;;;;;;;21.42;10.80;;;1.20;99.90;;;;;;5078584;28;20031;-73
2022/01/23 06:54:27;;;;;;;19.35;10.43;;;1.10;99.90;;;;;;5085493;28;20039;-73
2022/01/23 06:56:59;;;;;;;18.88;10.98;;;1.10;99.90;;;;;;5108369;28;20039;-73
2022/01/23 06:59:31;;;;;;;18.67;9.93;;;1.10;99.90;;;;;;5074799;28;20052;-72
2022/01/23 07:02:18;;;;;;;19.08;10.98;;;1.10;99.90;;;;;;5074780;28;20044;-73
2022/01/23 07:05:14;;;;;;;20.50;10.63;;;1.10;99.90;;;;;;5062519;28;20051;-73
2022/01/23 07:07:49;;;;;;;20.90;11.05;;;1.10;99.90;;;;;;5074653;28;20546;-73
2022/01/23 07:10:37;;;;;;;20.52;12.13;;;1.10;99.90;;;;;;5082753;28;20513;-73
2022/01/23 07:13:35;;;;;;;17.65;10.65;;;1.10;99.90;;;;;;5070923;28;20042;-73
2022/01/23 07:16:12;;;;;;;17.50;10.75;;;1.10;99.90;;;;;;5088558;28;20028;-73
2022/01/23 07:19:04;;;;;;;22.17;10.75;;;1.10;99.90;;;;;;5105107;28;20133;-73
2022/01/23 07:21:38;;;;;;;20.13;11.48;;;1.10;99.90;;;;;;5083602;28;20043;-76
2022/01/23 07:24:05;;;;;;;19.60;11.25;;;1.10;99.90;;;;;;5100965;27;20568;-73
2022/01/23 07:26:33;;;;;;;22.88;11.68;;;1.10;99.90;;;;;;5110833;28;20506;-73
2022/01/23 07:29:07;;;;;;;23.67;13.23;;;1.20;99.90;;;;;;5077850;28;20039;-73
2022/01/23 07:34:09;;;;;;;22.13;13.35;;;1.30;99.90;;;;;;5093543;28;20039;-74
2022/01/23 07:36:37;;;;;;;24.58;13.55;;;1.30;99.90;;;;;;5093822;28;20071;-73
2022/01/23 07:39:27;;;;;;;25.77;14.40;;;1.30;99.90;;;;;;5080207;28;20055;-73
2022/01/23 07:42:04;;;;;;;29.38;17.98;;;1.30;99.90;;;;;;5093846;28;20184;-73
2022/01/23 07:44:55;;;;;;;31.17;17.80;;;1.30;99.90;;;;;;5112396;28;20195;-72
2022/01/23 07:47:47;;;;;;;28.38;17.05;;;1.20;99.90;;;;;;5066468;28;20055;-73
2022/01/23 07:50:35;;;;;;;24.33;14.88;;;1.20;99.90;;;;;;5093758;28;20047;-73
2022/01/23 07:53:27;;;;;;;23.80;14.18;;;1.20;99.90;;;;;;5086241;28;20040;-73
2022/01/23 07:56:09;;;;;;;24.98;14.55;;;1.20;99.90;;;;;;5093740;28;20058;-73
2022/01/23 07:59:16;;;;;;;30.83;18.75;;;1.20;99.90;;;;;;4989521;28;20082;-73
2022/01/23 08:02:08;;;;;;;25.13;14.63;;;1.20;99.90;;;;;;5107280;28;20460;-73
2022/01/23 08:04:38;;;;;;;24.73;12.93;;;1.20;99.90;;;;;;5093368;28;20055;-73
2022/01/23 08:07:30;;;;;;;25.48;13.75;;;1.30;99.90;;;;;;5092550;28;20046;-73
2022/01/23 08:10:32;;;;;;;24.67;13.45;;;1.30;99.90;;;;;;5078084;28;20047;-73
2022/01/23 08:13:05;;;;;;;20.63;12.75;;;1.30;99.90;;;;;;5092050;28;20408;-73
2022/01/23 08:15:37;;;;;;;27.33;16.42;;;1.30;99.90;;;;;;5093574;28;20035;-73
2022/01/23 08:18:05;;;;;;;39.40;25.70;;;1.40;99.90;;;;;;5077189;28;20706;-73
2022/01/23 08:20:37;;;;;;;38.45;24.20;;;1.40;99.90;;;;;;5105424;28;20229;-73
2022/01/23 08:23:09;;;;;;;39.45;22.92;;;1.50;99.90;;;;;;5105568;28;20099;-73
2022/01/23 08:25:41;;;;;;;36.08;21.75;;;1.50;99.90;;;;;;5103654;28;20044;-73
2022/01/23 08:28:14;;;;;;;36.28;20.70;;;1.50;99.90;;;;;;5090666;28;20040;-74
2022/01/23 08:30:46;;;;;;;48.85;27.73;;;1.60;99.90;;;;;;5093253;28;20402;-73
2022/01/23 08:33:18;;;;;;;33.28;17.58;;;1.60;99.90;;;;;;5091639;28;20486;-73
2022/01/23 08:35:45;;;;;;;36.30;16.55;;;1.60;99.90;;;;;;5092298;28;20238;-72
2022/01/23 08:38:17;;;;;;;24.00;14.18;;;1.60;99.90;;;;;;5110053;28;20525;-73
2022/01/23 08:41:49;;;;;;;22.42;14.32;;;1.60;99.90;;;;;;5092608;28;20628;-73
2022/01/23 08:43:36;;;;;;;23.55;14.60;;;1.60;99.90;;;;;;5089511;28;20040;-73
2022/01/23 08:46:08;;;;;;;26.08;15.18;;;1.60;99.90;;;;;;5088972;28;20036;-73
2022/01/23 08:48:35;;;;;;;25.27;14.18;;;1.70;99.90;;;;;;5091835;28;20052;-73
2022/01/23 08:51:06;;;;;;;26.23;13.68;;;1.70;99.90;;;;;;5072931;28;20040;-73
2022/01/23 08:53:33;;;;;;;27.23;13.75;;;1.70;99.90;;;;;;5071280;28;20478;-73
2022/01/23 08:56:06;;;;;;;20.92;12.45;;;1.70;99.90;;;;;;5088862;28;20506;-73
2022/01/23 08:58:39;;;;;;;24.40;13.80;;;1.70;99.90;;;;;;5088373;28;20044;-74
2022/01/23 09:01:10;;;;;;;24.45;12.55;;;1.70;99.90;;;;;;5091440;28;20065;-73
2022/01/23 09:03:42;;;;;;;22.90;13.52;;;1.70;99.90;;;;;;5110512;28;20044;-73
2022/01/23 09:06:09;;;;;;;25.05;13.85;;;1.80;99.90;;;;;;5093367;28;20048;-73
2022/01/23 09:08:41;;;;;;;26.13;14.65;;;1.70;99.90;;;;;;5098057;28;20036;-73
2022/01/23 09:11:13;;;;;;;25.10;13.93;;;1.80;99.90;;;;;;5079499;28;20039;-73
2022/01/23 09:16:17;;;;;;;24.45;13.27;;;1.80;99.90;;;;;;5114726;28;20040;-73
2022/01/23 09:18:44;;;;;;;24.52;13.25;;;1.80;99.90;;;;;;5096277;28;20494;-73
2022/01/23 09:21:16;;;;;;;24.20;12.82;;;1.80;99.90;;;;;;5096294;28;20043;-73
2022/01/23 09:23:43;;;;;;;24.40;14.55;;;1.80;99.90;;;;;;5096073;28;20122;-73
2022/01/23 09:26:17;;;;;;;23.17;12.75;;;1.90;99.90;;;;;;5114722;28;20051;-73
2022/01/23 09:28:53;;;;;;;23.65;13.32;;;1.90;99.90;;;;;;5076889;28;20036;-73
2022/01/23 09:31:45;;;;;;;26.38;14.25;;;1.90;99.90;;;;;;5092841;28;20036;-73
2022/01/23 09:34:12;;;;;;;26.15;13.65;;;1.90;99.90;;;;;;5058948;28;20046;-73
2022/01/23 09:36:44;;;;;;;31.08;17.00;;;1.90;99.90;;;;;;5094120;28;20047;-73
2022/01/23 09:39:15;;;;;;;28.40;14.32;;;1.90;99.90;;;;;;5076155;28;20040;-73
2022/01/23 09:41:51;;;;;;;28.80;14.73;;;1.90;99.90;;;;;;5075808;28;20062;-73
2022/01/23 09:44:19;;;;;;;25.85;14.50;;;1.90;99.90;;;;;;5058791;28;20086;-72
2022/01/23 09:46:53;;;;;;;24.98;13.80;;;2.00;99.90;;;;;;5093652;28;20042;-73
2022/01/23 09:49:20;;;;;;;28.30;15.10;;;2.00;99.90;;;;;;5114013;28;20039;-72
2022/01/23 09:51:54;;;;;;;28.45;15.57;;;2.10;99.90;;;;;;5112676;28;20031;-73
2022/01/23 09:54:30;;;;;;;26.38;14.02;;;2.10;99.90;;;;;;5108447;28;20035;-73
2022/01/23 09:57:04;;;;;;;25.83;14.75;;;2.20;99.90;;;;;;5090007;28;20036;-73
2022/01/23 09:59:36;;;;;;;25.42;13.93;;;2.20;99.90;;;;;;5093986;28;20055;-73
2022/01/23 10:02:08;;;;;;;27.08;14.73;;;2.20;99.90;;;;;;5107781;28;20042;-73
2022/01/23 10:04:35;;;;;;;27.17;14.40;;;2.20;99.90;;;;;;5092273;28;20454;-73
2022/01/23 10:07:07;;;;;;;26.83;15.60;;;2.20;99.90;;;;;;5089019;28;20040;-72
2022/01/23 10:09:36;;;;;;;28.13;14.52;;;2.30;99.90;;;;;;5089671;28;20039;-73
2022/01/23 10:12:11;;;;;;;26.65;14.80;;;2.40;99.90;;;;;;5086048;28;20036;-73
2022/01/23 10:14:38;;;;;;;28.45;16.90;;;2.40;99.90;;;;;;5081154;28;20111;-73
2022/01/23 10:17:10;;;;;;;27.20;14.45;;;2.50;99.90;;;;;;5090920;28;20032;-73
2022/01/23 10:19:42;;;;;;;21.15;12.98;;;2.50;99.90;;;;;;5113640;28;20036;-73
2022/01/23 10:22:08;;;;;;;22.50;13.40;;;2.50;99.90;;;;;;5100041;28;20070;-73
2022/01/23 10:24:35;;;;;;;26.13;15.18;;;2.60;99.90;;;;;;5074579;28;20044;-73
2022/01/23 10:27:02;;;;;;;24.77;13.82;;;2.60;99.90;;;;;;5075026;28;20130;-72
2022/01/23 10:29:37;;;;;;;24.45;13.95;;;2.70;99.90;;;;;;5074960;28;20055;-72
2022/01/23 10:32:18;;;;;;;28.23;16.17;;;2.70;99.90;;;;;;5083177;28;20498;-73
2022/01/23 10:34:59;;;;;;;25.65;14.48;;;2.70;99.90;;;;;;5089378;28;20063;-73
2022/01/23 10:37:40;;;;;;;26.17;14.90;;;2.70;99.90;;;;;;5076715;28;20040;-73
2022/01/23 10:40:22;;;;;;;25.27;13.93;;;2.80;99.90;;;;;;5109691;28;20053;-73
2022/01/23 10:47:18;;;;;;;25.85;15.38;;;2.80;99.90;;;;;;5058266;28;20065;-73
2022/01/23 10:48:50;;;;;;;23.17;13.52;;;2.90;99.90;;;;;;5085655;28;20043;-73
2022/01/23 10:51:24;;;;;;;26.63;15.57;;;2.90;99.90;;;;;;5092741;28;20047;-73
2022/01/23 10:54:05;;;;;;;25.25;14.77;;;2.90;99.90;;;;;;5107582;28;20050;-73
2022/01/23 10:56:40;;;;;;;27.20;15.95;;;2.80;99.90;;;;;;5103465;28;20053;-73
2022/01/23 10:59:12;;;;;;;28.27;16.38;;;2.80;99.90;;;;;;5087187;28;20059;-72
2022/01/23 11:01:57;;;;;;;28.95;15.95;;;2.80;99.90;;;;;;5057692;28;20040;-73
2022/01/23 11:04:31;;;;;;;24.55;15.50;;;2.80;99.90;;;;;;5092075;28;20032;-72
2022/01/23 11:07:05;;;;;;;26.13;14.80;;;2.90;99.90;;;;;;5108047;28;20546;-73
2022/01/23 11:09:37;;;;;;;25.85;14.38;;;2.90;99.90;;;;;;5099595;28;20046;-73
2022/01/23 11:12:27;;;;;;;23.20;14.77;;;2.90;99.90;;;;;;5091108;28;20057;-73
2022/01/23 11:17:53;;;;;;;29.02;14.80;;;3.00;99.90;;;;;;5093864;28;20069;-73
2022/01/23 11:20:29;;;;;;;;;;;3.00;99.90;;;;;;5110185;28;20043;-73
2022/01/23 11:23:22;;;;;;;21.70;12.63;;;3.00;99.90;;;;;;5100131;28;19919;-73
2022/01/23 11:25:57;;;;;;;24.45;14.25;;;3.00;99.90;;;;;;5118225;28;20049;-73
2022/01/23 11:28:36;;;;;;;26.58;14.73;;;3.00;99.90;;;;;;5093394;28;20134;-73
2022/01/23 11:31:16;;;;;;;26.02;15.25;;;3.10;99.90;;;;;;5077281;28;20042;-73
2022/01/23 11:33:50;;;;;;;22.50;13.98;;;3.10;99.90;;;;;;5078719;28;20040;-73
2022/01/23 11:36:18;;;;;;;25.30;14.50;;;3.20;99.90;;;;;;5056764;28;20062;-73
2022/01/23 11:38:54;;;;;;;27.38;14.10;;;3.30;99.90;;;;;;5073327;28;20740;-73
2022/01/23 11:53:52;;;;;;;25.30;13.75;;;3.50;99.90;;;;;;5090862;28;20040;-72
2022/01/23 11:56:27;;;;;;;26.77;14.82;;;3.50;99.90;;;;;;5093695;28;20042;-73
2022/01/23 11:59:16;;;;;;;24.52;14.40;;;3.50;99.90;;;;;;5093099;28;20134;-73
2022/01/23 12:01:46;;;;;;;27.73;14.88;;;3.50;99.90;;;;;;5093381;28;20054;-72
2022/01/23 12:04:20;;;;;;;26.83;14.57;;;3.50;99.90;;;;;;5111403;28;20039;-73
2022/01/23 12:07:14;;;;;;;21.25;13.50;;;3.60;99.90;;;;;;5111588;28;20047;-73
2022/01/23 12:10:09;;;;;;;24.90;15.18;;;3.60;99.90;;;;;;5093184;28;20043;-73
2022/01/23 12:12:47;;;;;;;25.67;14.52;;;3.60;99.90;;;;;;5092002;28;20082;-73
2022/01/23 12:18:25;;;;;;;23.73;14.57;;;3.70;99.90;;;;;;5093327;28;20040;-73
2022/01/23 12:20:57;;;;;;;22.25;13.18;;;3.70;99.90;;;;;;5111660;28;20043;-73
2022/01/23 12:24:05;;;;;;;21.88;13.27;;;3.70;99.90;;;;;;5091589;28;20386;-73
2022/01/23 12:26:36;;;;;;;26.33;14.52;;;3.80;99.90;;;;;;5104512;28;20047;-73
2022/01/23 12:29:25;;;;;;;24.73;14.18;;;3.80;99.90;;;;;;5093419;28;20536;-73
2022/01/23 12:32:16;;;;;;;22.23;13.27;;;3.80;99.90;;;;;;5085213;28;20046;-72
2022/01/23 12:34:52;;;;;;;23.58;14.68;;;3.80;99.90;;;;;;5088648;28;20039;-73
2022/01/23 12:37:25;;;;;;;20.67;12.88;;;3.90;99.90;;;;;;5092927;28;20039;-73
2022/01/23 12:40:25;;;;;;;20.25;12.23;;;3.90;99.90;;;;;;5093827;28;20052;-73
2022/01/23 12:43:07;;;;;;;19.33;11.75;;;4.00;99.90;;;;;;5115482;28;20044;-73
2022/01/23 12:46:01;;;;;;;19.13;12.10;;;4.00;99.90;;;;;;5096018;28;20046;-73
2022/01/23 12:48:36;;;;;;;18.42;11.98;;;4.10;99.90;;;;;;5116548;28;20032;-73
2022/01/23 12:51:09;;;;;;;21.08;13.57;;;4.10;99.90;;;;;;5096730;28;20126;-73
2022/01/23 12:53:45;;;;;;;23.00;14.18;;;4.10;99.90;;;;;;5095516;28;20043;-73
2022/01/23 12:56:18;;;;;;;21.25;12.70;;;4.10;99.90;;;;;;5088230;28;20038;-73
2022/01/23 12:58:58;;;;;;;23.20;13.23;;;4.10;99.90;;;;;;5080967;28;20526;-73
2022/01/23 13:01:30;;;;;;;25.13;13.57;;;4.10;99.90;;;;;;5115417;28;20053;-73
2022/01/23 13:04:01;;;;;;;22.92;12.10;;;4.10;99.90;;;;;;5114726;28;20068;-73
2022/01/23 13:06:44;;;;;;;17.65;11.98;;;4.10;99.90;;;;;;5089353;28;20617;-73
2022/01/23 13:09:31;;;;;;;18.42;10.60;;;4.10;99.90;;;;;;5111373;28;20047;-72
2022/01/23 13:12:10;;;;;;;19.67;11.30;;;4.10;99.90;;;;;;5097690;28;20052;-72
2022/01/23 13:14:47;;;;;;;;;;;4.10;99.90;;;;;;5097931;28;20046;-73
2022/01/23 13:31:47;;;;;;;22.63;13.65;;;4.20;99.90;;;;;;5033694;28;20471;-71
2022/01/23 13:34:45;;;;;;;26.15;16.27;;;4.30;99.90;;;;;;5025351;28;20103;-72
2022/01/23 13:37:20;;;;;;;22.33;14.48;;;4.30;99.90;;;;;;5074653;28;20135;-72
2022/01/23 13:40:01;;;;;;;21.15;12.32;;;4.30;99.90;;;;;;5076774;28;20495;-73
2022/01/23 13:42:49;;;;;;;19.40;11.70;;;4.30;99.90;;;;;;5082555;28;20088;-72
2022/01/23 14:00:12;;;;;;;21.45;12.18;;;4.50;99.90;;;;;;5105821;28;20047;-73
2022/01/23 14:02:45;;;;;;;29.98;19.55;;;4.50;99.90;;;;;;5095779;28;20092;-72
2022/01/23 14:05:26;;;;;;;24.60;16.63;;;4.50;99.90;;;;;;5087204;28;20048;-73
2022/01/23 14:07:59;;;;;;;19.42;11.82;;;4.40;99.90;;;;;;5093187;28;20040;-73
2022/01/23 14:10:38;;;;;;;19.30;13.02;;;4.50;99.90;;;;;;5083991;28;20048;-72
2022/01/23 14:13:15;;;;;;;20.10;11.80;;;4.50;99.90;;;;;;5102634;28;20046;-73
2022/01/23 14:15:52;;;;;;;19.98;13.38;;;4.40;99.90;;;;;;5103116;28;20162;-72
2022/01/23 14:18:27;;;;;;;19.25;12.13;;;4.30;99.90;;;;;;5100424;28;20040;-73
2022/01/23 14:21:03;;;;;;;19.88;12.52;;;4.30;99.90;;;;;;5079413;28;20044;-72
2022/01/23 14:23:36;;;;;;;17.95;11.63;;;4.30;99.90;;;;;;5091990;28;20062;-72
2022/01/23 14:26:15;;;;;;;17.95;11.15;;;4.50;99.90;;;;;;5110621;28;20039;-73
2022/01/23 14:28:49;;;;;;;19.58;11.73;;;4.60;99.90;;;;;;5092941;28;20040;-73
2022/01/23 14:31:21;;;;;;;16.55;10.73;;;4.70;99.90;;;;;;5075634;28;20506;-72
2022/01/23 14:33:53;;;;;;;18.35;11.32;;;4.70;99.90;;;;;;5076494;28;20052;-73
2022/01/23 14:36:28;;;;;;;18.08;11.20;;;4.70;99.90;;;;;;5109920;28;20529;-73
2022/01/23 14:39:08;;;;;;;18.90;11.32;;;4.60;99.90;;;;;;5083041;28;20048;-73
2022/01/23 14:41:44;;;;;;;17.05;10.40;;;4.50;99.90;;;;;;5093380;28;20048;-73
2022/01/23 14:44:21;;;;;;;16.50;9.52;;;4.40;99.90;;;;;;5094299;28;20050;-73
2022/01/23 14:46:56;;;;;;;16.08;10.15;;;4.30;99.90;;;;;;5113582;28;20046;-73
2022/01/23 14:49:31;;;;;;;16.23;10.55;;;4.30;99.90;;;;;;5113570;28;20071;-73
2022/01/23 14:52:00;;;;;;;17.92;11.13;;;4.30;99.90;;;;;;5095501;28;20043;-73
2022/01/23 14:54:34;;;;;;;17.42;11.90;;;4.20;99.90;;;;;;5093884;28;20525;-72
2022/01/23 14:57:08;;;;;;;28.42;17.08;;;4.20;99.90;;;;;;5113879;28;20089;-73
2022/01/23 14:59:40;;;;;;;24.85;15.80;;;4.20;99.90;;;;;;5096514;28;20510;-73
2022/01/23 15:02:08;;;;;;;25.75;15.30;;;4.10;99.90;;;;;;5111329;28;20109;-73
2022/01/23 15:04:40;;;;;;;25.27;13.75;;;4.10;99.90;;;;;;5094630;28;20036;-73
2022/01/23 15:07:17;;;;;;;23.60;14.60;;;4.10;99.90;;;;;;5096229;28;20055;-72
2022/01/23 15:09:51;;;;;;;31.27;18.58;;;4.10;99.90;;;;;;5092955;28;20097;-73
2022/01/23 15:12:24;;;;;;;40.03;24.45;;;4.00;99.90;;;;;;5092708;28;20058;-73
2022/01/23 15:14:53;;;;;;;27.33;16.92;;;4.00;99.90;;;;;;5088286;28;20163;-72
2022/01/23 15:17:26;;;;;;;34.05;19.33;;;4.00;99.90;;;;;;5091837;28;20047;-72
2022/01/23 15:19:58;;;;;;;33.43;21.07;;;4.00;99.90;;;;;;5092100;28;20048;-73
2022/01/23 15:22:29;;;;;;;30.00;19.83;;;3.90;99.90;;;;;;5072556;28;20861;-72
2022/01/23 15:25:04;;;;;;;24.98;14.50;;;3.90;99.90;;;;;;5102797;28;20043;-72
2022/01/23 15:27:37;;;;;;;21.98;13.40;;;3.90;99.90;;;;;;5095382;28;20475;-73
2022/01/23 15:30:12;;;;;;;25.45;16.10;;;3.90;99.90;;;;;;5083667;28;20040;-72
2022/01/23 15:32:38;;;;;;;23.00;14.40;;;3.90;99.90;;;;;;5091045;28;20047;-73
2022/01/23 15:35:08;;;;;;;20.23;12.98;;;3.80;99.90;;;;;;5109519;28;20465;-73
2022/01/23 15:37:40;;;;;;;22.83;12.48;;;3.80;99.90;;;;;;5094014;28;20139;-72
2022/01/23 15:40:11;;;;;;;17.92;11.25;;;3.80;99.90;;;;;;5094115;28;20126;-73
2022/01/23 15:42:45;;;;;;;22.30;12.70;;;3.70;99.90;;;;;;5093658;28;20050;-73
2022/01/23 15:45:18;;;;;;;23.13;13.85;;;3.70;99.90;;;;;;5094194;28;20120;-73
2022/01/23 15:47:51;;;;;;;23.45;12.43;;;3.70;99.90;;;;;;5093943;28;20047;-73
2022/01/23 15:50:24;;;;;;;23.42;14.20;;;3.70;99.90;;;;;;5112067;28;20046;-73
2022/01/23 15:52:51;;;;;;;21.38;13.68;;;3.60;99.90;;;;;;5111668;28;20123;-73
2022/01/23 15:55:24;;;;;;;18.95;11.75;;;3.60;99.90;;;;;;5093911;28;20043;-73
2022/01/23 15:57:57;;;;;;;18.92;11.77;;;3.60;99.90;;;;;;5094581;28;20038;-73
2022/01/23 16:00:24;;;;;;;35.33;21.45;;;3.50;99.90;;;;;;5093770;28;20044;-73
2022/01/23 16:02:57;;;;;;;24.23;16.48;;;3.40;99.90;;;;;;5092662;28;20138;-73
2022/01/23 16:05:24;;;;;;;20.70;13.43;;;3.30;99.90;;;;;;5089912;28;20085;-73
2022/01/23 16:07:53;;;;;;;31.02;20.73;;;3.10;99.90;;;;;;5080493;28;20044;-74
2022/01/23 16:10:21;;;;;;;39.70;26.98;;;3.00;99.90;;;;;;5112359;28;20044;-73
2022/01/23 16:12:48;;;;;;;31.05;21.67;;;2.90;99.90;;;;;;5093442;28;20569;-73
2022/01/23 16:15:21;;;;;;;67.07;40.92;;;2.90;99.90;;;;;;5093192;28;20127;-73
2022/01/23 16:17:54;;;;;;;129.10;71.10;;;2.70;99.90;;;;;;5093238;28;20163;-73
2022/01/23 16:20:21;;;;;;;97.82;57.85;;;2.60;99.90;;;;;;5093266;28;20417;-72
2022/01/23 16:22:52;;;;;;;42.58;26.85;;;2.40;99.90;;;;;;5093949;28;20516;-73
2022/01/23 16:25:26;;;;;;;33.17;20.02;;;2.30;99.90;;;;;;5111521;28;20064;-73
2022/01/23 16:27:54;;;;;;;24.55;14.77;;;2.30;99.90;;;;;;5075736;28;20704;-72
2022/01/23 16:30:51;;;;;;;26.27;15.40;;;2.40;99.90;;;;;;5091900;28;20047;-73
2022/01/23 16:33:24;;;;;;;21.42;13.20;;;2.30;99.90;;;;;;5076706;28;20044;-73